sensor_id;sensor_type;location;lat;lon;timestamp;temperature;humidity
49379;DHT22;35254;47.990;-1.608;2023-04-15T00:01:24;19.60;51.70
49379;DHT22;35254;47.990;-1.608;2023-04-15T00:03:51;19.60;51.70
49379;DHT22;35254;47.990;-1.608;2023-04-15T00:06:18;19.60;51.70
49379;DHT22;35254;47.990;-1.608;2023-04-15T00:08:47;19.70;51.70
49379;DHT22;35254;47.990;-1.608;2023-04-15T00:11:13;19.60;51.60
49379;DHT22;35254;47.990;-1.608;2023-04-15T00:13:40;19.60;51.70
49379;DHT22;35254;47.990;-1.608;2023-04-15T00:16:06;19.60;51.70
49379;DHT22;35254;47.990;-1.608;2023-04-15T00:18:33;19.60;51.70
49379;DHT22;35254;47.990;-1.608;2023-04-15T00:20:58;19.60;51.70
49379;DHT22;35254;47.990;-1.608;2023-04-15T00:23:25;19.60;51.70
49379;DHT22;35254;47.990;-1.608;2023-04-15T00:25:51;19.60;51.70
49379;DHT22;35254;47.990;-1.608;2023-04-15T00:28:16;19.60;51.60
49379;DHT22;35254;47.990;-1.608;2023-04-15T00:30:42;19.60;51.70
49379;DHT22;35254;47.990;-1.608;2023-04-15T00:33:08;19.60;51.70
49379;DHT22;35254;47.990;-1.608;2023-04-15T00:35:34;19.60;51.70
49379;DHT22;35254;47.990;-1.608;2023-04-15T00:38:02;19.60;51.70
49379;DHT22;35254;47.990;-1.608;2023-04-15T00:40:29;19.60;51.80
49379;DHT22;35254;47.990;-1.608;2023-04-15T00:42:55;19.60;51.80
49379;DHT22;35254;47.990;-1.608;2023-04-15T00:45:21;19.60;51.80
49379;DHT22;35254;47.990;-1.608;2023-04-15T00:47:46;19.60;51.70
49379;DHT22;35254;47.990;-1.608;2023-04-15T00:50:12;19.60;51.70
49379;DHT22;35254;47.990;-1.608;2023-04-15T00:52:39;19.60;51.70
49379;DHT22;35254;47.990;-1.608;2023-04-15T00:55:05;19.60;51.70
49379;DHT22;35254;47.990;-1.608;2023-04-15T00:57:32;19.60;51.70
49379;DHT22;35254;47.990;-1.608;2023-04-15T00:59:58;19.60;51.70
49379;DHT22;35254;47.990;-1.608;2023-04-15T01:02:24;19.50;51.70
49379;DHT22;35254;47.990;-1.608;2023-04-15T01:04:50;19.50;51.70
49379;DHT22;35254;47.990;-1.608;2023-04-15T01:07:16;19.60;51.70
49379;DHT22;35254;47.990;-1.608;2023-04-15T01:09:42;19.50;51.60
49379;DHT22;35254;47.990;-1.608;2023-04-15T01:12:09;19.50;51.60
49379;DHT22;35254;47.990;-1.608;2023-04-15T01:14:36;19.50;51.70
49379;DHT22;35254;47.990;-1.608;2023-04-15T01:17:02;19.50;51.60
49379;DHT22;35254;47.990;-1.608;2023-04-15T01:19:27;19.50;51.60
49379;DHT22;35254;47.990;-1.608;2023-04-15T01:21:53;19.50;51.50
49379;DHT22;35254;47.990;-1.608;2023-04-15T01:24:19;19.50;51.60
49379;DHT22;35254;47.990;-1.608;2023-04-15T01:26:45;19.50;51.60
49379;DHT22;35254;47.990;-1.608;2023-04-15T01:29:11;19.50;51.60
49379;DHT22;35254;47.990;-1.608;2023-04-15T01:31:38;19.50;51.50
49379;DHT22;35254;47.990;-1.608;2023-04-15T01:34:03;19.50;51.50
49379;DHT22;35254;47.990;-1.608;2023-04-15T01:36:29;19.50;51.50
49379;DHT22;35254;47.990;-1.608;2023-04-15T01:38:55;19.50;51.50
49379;DHT22;35254;47.990;-1.608;2023-04-15T01:41:27;19.50;51.50
49379;DHT22;35254;47.990;-1.608;2023-04-15T01:43:53;19.50;51.50
49379;DHT22;35254;47.990;-1.608;2023-04-15T01:46:19;19.40;51.40
49379;DHT22;35254;47.990;-1.608;2023-04-15T01:48:45;19.40;51.40
49379;DHT22;35254;47.990;-1.608;2023-04-15T01:51:11;19.50;51.40
49379;DHT22;35254;47.990;-1.608;2023-04-15T01:53:37;19.40;51.30
49379;DHT22;35254;47.990;-1.608;2023-04-15T01:56:03;19.50;51.40
49379;DHT22;35254;47.990;-1.608;2023-04-15T01:58:28;19.40;51.30
49379;DHT22;35254;47.990;-1.608;2023-04-15T02:00:54;19.40;51.30
49379;DHT22;35254;47.990;-1.608;2023-04-15T02:03:20;19.40;51.30
49379;DHT22;35254;47.990;-1.608;2023-04-15T02:05:46;19.40;51.30
49379;DHT22;35254;47.990;-1.608;2023-04-15T02:08:12;19.40;51.30
49379;DHT22;35254;47.990;-1.608;2023-04-15T02:10:38;19.40;51.20
49379;DHT22;35254;47.990;-1.608;2023-04-15T02:13:04;19.40;51.20
49379;DHT22;35254;47.990;-1.608;2023-04-15T02:15:29;19.40;51.20
49379;DHT22;35254;47.990;-1.608;2023-04-15T02:17:55;19.40;51.10
49379;DHT22;35254;47.990;-1.608;2023-04-15T02:20:21;19.40;51.10
49379;DHT22;35254;47.990;-1.608;2023-04-15T02:22:47;19.40;51.10
49379;DHT22;35254;47.990;-1.608;2023-04-15T02:25:14;19.30;51.00
49379;DHT22;35254;47.990;-1.608;2023-04-15T02:27:41;19.40;51.00
49379;DHT22;35254;47.990;-1.608;2023-04-15T02:30:07;19.30;51.00
49379;DHT22;35254;47.990;-1.608;2023-04-15T02:32:33;19.40;51.00
49379;DHT22;35254;47.990;-1.608;2023-04-15T02:35:06;19.40;51.00
49379;DHT22;35254;47.990;-1.608;2023-04-15T02:37:33;19.40;51.00
49379;DHT22;35254;47.990;-1.608;2023-04-15T02:40:06;19.30;50.90
49379;DHT22;35254;47.990;-1.608;2023-04-15T02:42:32;19.30;51.00
49379;DHT22;35254;47.990;-1.608;2023-04-15T02:44:57;19.40;50.90
49379;DHT22;35254;47.990;-1.608;2023-04-15T02:47:23;19.40;50.90
49379;DHT22;35254;47.990;-1.608;2023-04-15T02:49:49;19.30;50.90
49379;DHT22;35254;47.990;-1.608;2023-04-15T02:52:14;19.30;50.90
49379;DHT22;35254;47.990;-1.608;2023-04-15T02:54:40;19.30;50.90
49379;DHT22;35254;47.990;-1.608;2023-04-15T02:57:06;19.30;50.90
49379;DHT22;35254;47.990;-1.608;2023-04-15T02:59:31;19.30;50.80
49379;DHT22;35254;47.990;-1.608;2023-04-15T03:01:57;19.30;50.80
49379;DHT22;35254;47.990;-1.608;2023-04-15T03:04:26;19.30;50.80
49379;DHT22;35254;47.990;-1.608;2023-04-15T03:06:54;19.30;50.80
49379;DHT22;35254;47.990;-1.608;2023-04-15T03:09:20;19.30;50.70
49379;DHT22;35254;47.990;-1.608;2023-04-15T03:11:46;19.30;50.60
49379;DHT22;35254;47.990;-1.608;2023-04-15T03:14:11;19.30;50.60
49379;DHT22;35254;47.990;-1.608;2023-04-15T03:16:37;19.30;50.50
49379;DHT22;35254;47.990;-1.608;2023-04-15T03:19:02;19.20;50.50
49379;DHT22;35254;47.990;-1.608;2023-04-15T03:21:28;19.20;50.50
49379;DHT22;35254;47.990;-1.608;2023-04-15T03:23:53;19.30;50.40
49379;DHT22;35254;47.990;-1.608;2023-04-15T03:26:29;19.30;50.40
49379;DHT22;35254;47.990;-1.608;2023-04-15T03:28:55;19.20;50.40
49379;DHT22;35254;47.990;-1.608;2023-04-15T03:31:21;19.30;50.30
49379;DHT22;35254;47.990;-1.608;2023-04-15T03:33:47;19.20;50.40
49379;DHT22;35254;47.990;-1.608;2023-04-15T03:36:13;19.20;50.40
49379;DHT22;35254;47.990;-1.608;2023-04-15T03:38:38;19.20;50.30
49379;DHT22;35254;47.990;-1.608;2023-04-15T03:41:04;19.20;50.30
49379;DHT22;35254;47.990;-1.608;2023-04-15T03:43:30;19.20;50.30
49379;DHT22;35254;47.990;-1.608;2023-04-15T03:45:56;19.20;50.40
49379;DHT22;35254;47.990;-1.608;2023-04-15T03:48:21;19.20;50.30
49379;DHT22;35254;47.990;-1.608;2023-04-15T03:50:47;19.20;50.30
49379;DHT22;35254;47.990;-1.608;2023-04-15T03:53:13;19.20;50.30
49379;DHT22;35254;47.990;-1.608;2023-04-15T03:55:39;19.20;50.30
49379;DHT22;35254;47.990;-1.608;2023-04-15T03:58:04;19.20;50.20
49379;DHT22;35254;47.990;-1.608;2023-04-15T04:00:30;19.20;50.20
49379;DHT22;35254;47.990;-1.608;2023-04-15T04:02:56;19.20;50.30
49379;DHT22;35254;47.990;-1.608;2023-04-15T04:05:21;19.20;50.30
49379;DHT22;35254;47.990;-1.608;2023-04-15T04:07:47;19.20;50.20
49379;DHT22;35254;47.990;-1.608;2023-04-15T04:10:13;19.20;50.20
49379;DHT22;35254;47.990;-1.608;2023-04-15T04:12:38;19.20;50.20
49379;DHT22;35254;47.990;-1.608;2023-04-15T04:15:04;19.20;50.30
49379;DHT22;35254;47.990;-1.608;2023-04-15T04:17:31;19.20;50.30
49379;DHT22;35254;47.990;-1.608;2023-04-15T04:19:56;19.20;50.30
49379;DHT22;35254;47.990;-1.608;2023-04-15T04:22:23;19.20;50.30
49379;DHT22;35254;47.990;-1.608;2023-04-15T04:24:49;19.20;50.30
49379;DHT22;35254;47.990;-1.608;2023-04-15T04:27:14;19.20;50.30
49379;DHT22;35254;47.990;-1.608;2023-04-15T04:29:40;19.20;50.30
49379;DHT22;35254;47.990;-1.608;2023-04-15T04:32:06;19.20;50.40
49379;DHT22;35254;47.990;-1.608;2023-04-15T04:34:32;19.20;50.40
49379;DHT22;35254;47.990;-1.608;2023-04-15T04:36:57;19.20;50.40
49379;DHT22;35254;47.990;-1.608;2023-04-15T04:39:23;19.20;50.20
49379;DHT22;35254;47.990;-1.608;2023-04-15T04:41:49;19.20;50.20
49379;DHT22;35254;47.990;-1.608;2023-04-15T04:44:16;19.20;50.10
49379;DHT22;35254;47.990;-1.608;2023-04-15T04:46:42;19.20;50.00
49379;DHT22;35254;47.990;-1.608;2023-04-15T04:49:08;19.10;50.10
49379;DHT22;35254;47.990;-1.608;2023-04-15T04:51:34;19.10;50.10
49379;DHT22;35254;47.990;-1.608;2023-04-15T04:53:59;19.10;50.10
49379;DHT22;35254;47.990;-1.608;2023-04-15T04:56:25;19.20;50.10
49379;DHT22;35254;47.990;-1.608;2023-04-15T04:58:51;19.10;50.20
49379;DHT22;35254;47.990;-1.608;2023-04-15T05:01:17;19.10;50.10
49379;DHT22;35254;47.990;-1.608;2023-04-15T05:03:43;19.10;50.00
49379;DHT22;35254;47.990;-1.608;2023-04-15T05:06:08;19.10;50.00
49379;DHT22;35254;47.990;-1.608;2023-04-15T05:08:35;19.10;50.00
49379;DHT22;35254;47.990;-1.608;2023-04-15T05:11:01;19.10;50.10
49379;DHT22;35254;47.990;-1.608;2023-04-15T05:13:27;19.00;50.10
49379;DHT22;35254;47.990;-1.608;2023-04-15T05:15:53;19.10;50.00
49379;DHT22;35254;47.990;-1.608;2023-04-15T05:18:18;19.10;50.10
49379;DHT22;35254;47.990;-1.608;2023-04-15T05:20:45;19.10;50.00
49379;DHT22;35254;47.990;-1.608;2023-04-15T05:23:10;19.00;50.00
49379;DHT22;35254;47.990;-1.608;2023-04-15T05:25:36;19.10;50.10
49379;DHT22;35254;47.990;-1.608;2023-04-15T05:28:02;19.00;50.00
49379;DHT22;35254;47.990;-1.608;2023-04-15T05:30:27;19.00;50.00
49379;DHT22;35254;47.990;-1.608;2023-04-15T05:32:53;19.00;50.00
49379;DHT22;35254;47.990;-1.608;2023-04-15T05:35:19;19.00;50.00
49379;DHT22;35254;47.990;-1.608;2023-04-15T05:37:44;19.00;50.00
49379;DHT22;35254;47.990;-1.608;2023-04-15T05:40:10;19.00;49.90
49379;DHT22;35254;47.990;-1.608;2023-04-15T05:42:36;19.00;49.90
49379;DHT22;35254;47.990;-1.608;2023-04-15T05:45:02;19.00;49.90
49379;DHT22;35254;47.990;-1.608;2023-04-15T05:47:30;19.00;49.80
49379;DHT22;35254;47.990;-1.608;2023-04-15T05:49:56;19.00;49.90
49379;DHT22;35254;47.990;-1.608;2023-04-15T05:52:23;19.00;49.90
49379;DHT22;35254;47.990;-1.608;2023-04-15T05:54:49;19.00;49.80
49379;DHT22;35254;47.990;-1.608;2023-04-15T05:57:15;19.00;49.90
49379;DHT22;35254;47.990;-1.608;2023-04-15T05:59:40;18.90;49.80
49379;DHT22;35254;47.990;-1.608;2023-04-15T06:02:07;19.00;49.80
49379;DHT22;35254;47.990;-1.608;2023-04-15T06:04:34;19.00;49.80
49379;DHT22;35254;47.990;-1.608;2023-04-15T06:06:59;18.90;49.80
49379;DHT22;35254;47.990;-1.608;2023-04-15T06:09:25;18.90;49.70
49379;DHT22;35254;47.990;-1.608;2023-04-15T06:11:51;19.00;49.80
49379;DHT22;35254;47.990;-1.608;2023-04-15T06:14:17;19.00;49.80
49379;DHT22;35254;47.990;-1.608;2023-04-15T06:16:43;18.90;49.70
49379;DHT22;35254;47.990;-1.608;2023-04-15T06:19:08;18.90;49.70
49379;DHT22;35254;47.990;-1.608;2023-04-15T06:21:34;18.90;49.80
49379;DHT22;35254;47.990;-1.608;2023-04-15T06:24:00;18.90;49.70
49379;DHT22;35254;47.990;-1.608;2023-04-15T06:26:26;18.90;49.70
49379;DHT22;35254;47.990;-1.608;2023-04-15T06:28:52;18.90;49.70
49379;DHT22;35254;47.990;-1.608;2023-04-15T06:31:18;18.90;49.80
49379;DHT22;35254;47.990;-1.608;2023-04-15T06:33:44;18.90;49.80
49379;DHT22;35254;47.990;-1.608;2023-04-15T06:36:09;18.90;49.90
49379;DHT22;35254;47.990;-1.608;2023-04-15T06:38:35;18.90;49.80
49379;DHT22;35254;47.990;-1.608;2023-04-15T06:41:02;18.90;49.90
49379;DHT22;35254;47.990;-1.608;2023-04-15T06:43:28;18.80;49.80
49379;DHT22;35254;47.990;-1.608;2023-04-15T06:45:54;18.80;49.80
49379;DHT22;35254;47.990;-1.608;2023-04-15T06:48:21;18.90;49.80
49379;DHT22;35254;47.990;-1.608;2023-04-15T06:50:47;18.80;49.70
49379;DHT22;35254;47.990;-1.608;2023-04-15T06:53:13;18.80;49.90
49379;DHT22;35254;47.990;-1.608;2023-04-15T06:55:39;18.80;49.90
49379;DHT22;35254;47.990;-1.608;2023-04-15T06:58:06;18.80;49.80
49379;DHT22;35254;47.990;-1.608;2023-04-15T07:00:31;18.80;49.80
49379;DHT22;35254;47.990;-1.608;2023-04-15T07:02:59;18.80;49.90
49379;DHT22;35254;47.990;-1.608;2023-04-15T07:05:30;18.80;49.90
49379;DHT22;35254;47.990;-1.608;2023-04-15T07:07:56;18.80;50.00
49379;DHT22;35254;47.990;-1.608;2023-04-15T07:10:22;18.80;50.00
49379;DHT22;35254;47.990;-1.608;2023-04-15T07:12:48;18.80;50.00
49379;DHT22;35254;47.990;-1.608;2023-04-15T07:15:15;18.80;50.00
49379;DHT22;35254;47.990;-1.608;2023-04-15T07:17:41;18.80;50.10
49379;DHT22;35254;47.990;-1.608;2023-04-15T07:20:08;18.80;50.10
49379;DHT22;35254;47.990;-1.608;2023-04-15T07:22:33;18.80;50.20
49379;DHT22;35254;47.990;-1.608;2023-04-15T07:24:59;18.80;50.00
49379;DHT22;35254;47.990;-1.608;2023-04-15T07:27:25;18.80;50.10
49379;DHT22;35254;47.990;-1.608;2023-04-15T07:29:51;18.80;50.20
49379;DHT22;35254;47.990;-1.608;2023-04-15T07:32:17;18.80;50.30
49379;DHT22;35254;47.990;-1.608;2023-04-15T07:34:43;18.70;50.20
49379;DHT22;35254;47.990;-1.608;2023-04-15T07:37:09;18.80;50.10
49379;DHT22;35254;47.990;-1.608;2023-04-15T07:39:35;18.80;50.10
49379;DHT22;35254;47.990;-1.608;2023-04-15T07:42:01;18.80;50.20
49379;DHT22;35254;47.990;-1.608;2023-04-15T07:44:28;18.70;50.20
49379;DHT22;35254;47.990;-1.608;2023-04-15T07:46:55;18.70;50.10
49379;DHT22;35254;47.990;-1.608;2023-04-15T07:49:20;18.70;50.20
49379;DHT22;35254;47.990;-1.608;2023-04-15T07:51:46;18.70;50.10
49379;DHT22;35254;47.990;-1.608;2023-04-15T07:54:13;18.70;50.30
49379;DHT22;35254;47.990;-1.608;2023-04-15T07:56:39;18.70;50.20
49379;DHT22;35254;47.990;-1.608;2023-04-15T07:59:04;18.70;50.20
49379;DHT22;35254;47.990;-1.608;2023-04-15T08:01:31;18.70;50.40
49379;DHT22;35254;47.990;-1.608;2023-04-15T08:04:00;18.80;50.40
49379;DHT22;35254;47.990;-1.608;2023-04-15T08:06:25;18.70;50.40
49379;DHT22;35254;47.990;-1.608;2023-04-15T08:08:52;18.70;50.40
49379;DHT22;35254;47.990;-1.608;2023-04-15T08:11:19;18.70;50.60
49379;DHT22;35254;47.990;-1.608;2023-04-15T08:13:45;18.70;50.50
49379;DHT22;35254;47.990;-1.608;2023-04-15T08:16:22;18.70;50.50
49379;DHT22;35254;47.990;-1.608;2023-04-15T08:18:48;18.70;50.50
49379;DHT22;35254;47.990;-1.608;2023-04-15T08:21:15;18.70;50.50
49379;DHT22;35254;47.990;-1.608;2023-04-15T08:23:42;18.70;50.60
49379;DHT22;35254;47.990;-1.608;2023-04-15T08:26:08;18.80;50.70
49379;DHT22;35254;47.990;-1.608;2023-04-15T08:28:34;18.70;50.70
49379;DHT22;35254;47.990;-1.608;2023-04-15T08:31:00;18.70;50.70
49379;DHT22;35254;47.990;-1.608;2023-04-15T08:33:25;18.70;50.70
49379;DHT22;35254;47.990;-1.608;2023-04-15T08:35:51;18.70;50.80
49379;DHT22;35254;47.990;-1.608;2023-04-15T08:38:17;18.80;50.90
49379;DHT22;35254;47.990;-1.608;2023-04-15T08:40:44;18.70;50.90
49379;DHT22;35254;47.990;-1.608;2023-04-15T08:43:14;18.80;50.90
49379;DHT22;35254;47.990;-1.608;2023-04-15T08:45:43;18.80;51.10
49379;DHT22;35254;47.990;-1.608;2023-04-15T08:48:14;18.80;51.10
49379;DHT22;35254;47.990;-1.608;2023-04-15T08:50:41;18.80;51.20
49379;DHT22;35254;47.990;-1.608;2023-04-15T08:53:08;18.80;51.20
49379;DHT22;35254;47.990;-1.608;2023-04-15T08:55:35;18.80;51.20
49379;DHT22;35254;47.990;-1.608;2023-04-15T08:58:03;18.80;51.20
49379;DHT22;35254;47.990;-1.608;2023-04-15T09:00:30;18.80;51.20
49379;DHT22;35254;47.990;-1.608;2023-04-15T09:02:57;18.80;51.30
49379;DHT22;35254;47.990;-1.608;2023-04-15T09:05:23;18.80;51.30
49379;DHT22;35254;47.990;-1.608;2023-04-15T09:07:52;18.80;51.40
49379;DHT22;35254;47.990;-1.608;2023-04-15T09:10:17;18.80;51.40
49379;DHT22;35254;47.990;-1.608;2023-04-15T09:12:43;18.90;51.40
49379;DHT22;35254;47.990;-1.608;2023-04-15T09:15:12;18.90;51.40
49379;DHT22;35254;47.990;-1.608;2023-04-15T09:17:42;18.90;51.40
49379;DHT22;35254;47.990;-1.608;2023-04-15T09:20:14;18.90;51.40
49379;DHT22;35254;47.990;-1.608;2023-04-15T09:22:41;18.90;51.50
49379;DHT22;35254;47.990;-1.608;2023-04-15T09:27:49;18.90;51.70
49379;DHT22;35254;47.990;-1.608;2023-04-15T09:30:15;19.00;52.30
49379;DHT22;35254;47.990;-1.608;2023-04-15T09:32:52;19.00;52.60
49379;DHT22;35254;47.990;-1.608;2023-04-15T09:35:19;19.00;52.90
49379;DHT22;35254;47.990;-1.608;2023-04-15T09:37:46;19.00;53.00
49379;DHT22;35254;47.990;-1.608;2023-04-15T09:40:12;19.00;53.10
49379;DHT22;35254;47.990;-1.608;2023-04-15T09:42:55;19.00;52.90
49379;DHT22;35254;47.990;-1.608;2023-04-15T09:45:22;19.10;52.90
49379;DHT22;35254;47.990;-1.608;2023-04-15T09:47:48;19.10;52.90
49379;DHT22;35254;47.990;-1.608;2023-04-15T09:50:17;19.10;52.90
49379;DHT22;35254;47.990;-1.608;2023-04-15T09:52:43;19.10;52.70
49379;DHT22;35254;47.990;-1.608;2023-04-15T09:55:10;19.10;52.60
49379;DHT22;35254;47.990;-1.608;2023-04-15T09:57:37;19.10;52.60
49379;DHT22;35254;47.990;-1.608;2023-04-15T10:00:06;19.10;52.50
49379;DHT22;35254;47.990;-1.608;2023-04-15T10:02:33;19.10;52.50
49379;DHT22;35254;47.990;-1.608;2023-04-15T10:05:00;19.10;52.40
49379;DHT22;35254;47.990;-1.608;2023-04-15T10:07:26;19.20;52.40
49379;DHT22;35254;47.990;-1.608;2023-04-15T10:09:52;19.20;52.30
49379;DHT22;35254;47.990;-1.608;2023-04-15T10:12:18;19.20;52.30
49379;DHT22;35254;47.990;-1.608;2023-04-15T10:14:48;19.20;52.20
49379;DHT22;35254;47.990;-1.608;2023-04-15T10:17:17;19.20;52.20
49379;DHT22;35254;47.990;-1.608;2023-04-15T10:19:46;19.20;52.20
49379;DHT22;35254;47.990;-1.608;2023-04-15T10:22:14;19.20;52.10
49379;DHT22;35254;47.990;-1.608;2023-04-15T10:24:40;19.20;52.10
49379;DHT22;35254;47.990;-1.608;2023-04-15T10:27:07;19.20;52.00
49379;DHT22;35254;47.990;-1.608;2023-04-15T10:29:33;19.20;52.00
49379;DHT22;35254;47.990;-1.608;2023-04-15T10:31:59;19.20;52.00
49379;DHT22;35254;47.990;-1.608;2023-04-15T10:34:26;19.20;51.90
49379;DHT22;35254;47.990;-1.608;2023-04-15T10:36:56;19.20;51.80
49379;DHT22;35254;47.990;-1.608;2023-04-15T10:39:41;19.20;51.70
49379;DHT22;35254;47.990;-1.608;2023-04-15T10:42:14;19.20;51.50
49379;DHT22;35254;47.990;-1.608;2023-04-15T10:44:50;19.20;51.50
49379;DHT22;35254;47.990;-1.608;2023-04-15T10:47:18;19.20;51.30
49379;DHT22;35254;47.990;-1.608;2023-04-15T10:50:00;19.20;51.40
49379;DHT22;35254;47.990;-1.608;2023-04-15T10:52:27;19.20;51.40
49379;DHT22;35254;47.990;-1.608;2023-04-15T10:55:15;19.20;51.40
49379;DHT22;35254;47.990;-1.608;2023-04-15T10:57:43;19.20;51.70
49379;DHT22;35254;47.990;-1.608;2023-04-15T11:00:14;19.30;51.70
49379;DHT22;35254;47.990;-1.608;2023-04-15T11:02:57;19.30;51.80
49379;DHT22;35254;47.990;-1.608;2023-04-15T11:05:50;19.40;51.90
49379;DHT22;35254;47.990;-1.608;2023-04-15T11:08:16;19.40;52.00
49379;DHT22;35254;47.990;-1.608;2023-04-15T11:15:42;19.40;52.20
49379;DHT22;35254;47.990;-1.608;2023-04-15T11:18:20;19.40;52.30
49379;DHT22;35254;47.990;-1.608;2023-04-15T11:23:26;19.50;52.40
49379;DHT22;35254;47.990;-1.608;2023-04-15T11:25:54;19.50;52.60
49379;DHT22;35254;47.990;-1.608;2023-04-15T11:28:28;19.50;52.90
49379;DHT22;35254;47.990;-1.608;2023-04-15T11:30:54;19.60;54.80
49379;DHT22;35254;47.990;-1.608;2023-04-15T11:33:20;19.60;55.80
49379;DHT22;35254;47.990;-1.608;2023-04-15T11:35:47;19.60;57.60
49379;DHT22;35254;47.990;-1.608;2023-04-15T11:38:13;19.60;58.20
49379;DHT22;35254;47.990;-1.608;2023-04-15T11:40:43;19.60;58.00
49379;DHT22;35254;47.990;-1.608;2023-04-15T11:43:27;19.60;58.70
49379;DHT22;35254;47.990;-1.608;2023-04-15T11:45:58;19.60;58.20
49379;DHT22;35254;47.990;-1.608;2023-04-15T11:48:26;19.60;58.90
49379;DHT22;35254;47.990;-1.608;2023-04-15T11:53:19;19.70;59.10
49379;DHT22;35254;47.990;-1.608;2023-04-15T11:55:47;19.70;63.30
49379;DHT22;35254;47.990;-1.608;2023-04-15T12:00:52;19.70;63.00
49379;DHT22;35254;47.990;-1.608;2023-04-15T12:03:20;19.70;62.10
49379;DHT22;35254;47.990;-1.608;2023-04-15T12:06:14;19.70;61.40
49379;DHT22;35254;47.990;-1.608;2023-04-15T12:11:25;19.70;60.10
49379;DHT22;35254;47.990;-1.608;2023-04-15T12:16:22;19.80;59.20
49379;DHT22;35254;47.990;-1.608;2023-04-15T12:18:56;19.80;58.90
49379;DHT22;35254;47.990;-1.608;2023-04-15T12:21:24;19.80;58.50
49379;DHT22;35254;47.990;-1.608;2023-04-15T12:23:54;19.80;58.20
49379;DHT22;35254;47.990;-1.608;2023-04-15T12:26:31;19.90;58.00
49379;DHT22;35254;47.990;-1.608;2023-04-15T12:29:01;19.90;57.70
49379;DHT22;35254;47.990;-1.608;2023-04-15T12:31:27;19.90;57.40
49379;DHT22;35254;47.990;-1.608;2023-04-15T12:33:56;19.90;57.10
49379;DHT22;35254;47.990;-1.608;2023-04-15T12:36:22;19.90;56.80
49379;DHT22;35254;47.990;-1.608;2023-04-15T12:38:48;19.90;55.90
49379;DHT22;35254;47.990;-1.608;2023-04-15T12:41:14;19.80;55.80
49379;DHT22;35254;47.990;-1.608;2023-04-15T12:43:40;19.90;55.80
49379;DHT22;35254;47.990;-1.608;2023-04-15T12:46:06;19.80;55.20
49379;DHT22;35254;47.990;-1.608;2023-04-15T12:48:33;19.80;55.60
49379;DHT22;35254;47.990;-1.608;2023-04-15T12:50:59;19.90;55.80
49379;DHT22;35254;47.990;-1.608;2023-04-15T12:53:25;19.80;55.60
49379;DHT22;35254;47.990;-1.608;2023-04-15T12:55:50;19.90;55.60
49379;DHT22;35254;47.990;-1.608;2023-04-15T12:58:16;19.90;55.60
49379;DHT22;35254;47.990;-1.608;2023-04-15T13:00:42;19.90;55.40
49379;DHT22;35254;47.990;-1.608;2023-04-15T13:03:08;19.90;55.30
49379;DHT22;35254;47.990;-1.608;2023-04-15T13:05:33;19.90;55.10
49379;DHT22;35254;47.990;-1.608;2023-04-15T13:08:01;19.90;55.00
49379;DHT22;35254;47.990;-1.608;2023-04-15T13:10:28;20.00;55.10
49379;DHT22;35254;47.990;-1.608;2023-04-15T13:12:54;19.90;55.00
49379;DHT22;35254;47.990;-1.608;2023-04-15T13:15:21;19.90;54.90
49379;DHT22;35254;47.990;-1.608;2023-04-15T13:17:47;19.90;54.90
49379;DHT22;35254;47.990;-1.608;2023-04-15T13:20:13;20.00;54.80
49379;DHT22;35254;47.990;-1.608;2023-04-15T13:22:38;20.00;54.70
49379;DHT22;35254;47.990;-1.608;2023-04-15T13:25:05;20.00;54.60
49379;DHT22;35254;47.990;-1.608;2023-04-15T13:27:31;20.00;54.40
49379;DHT22;35254;47.990;-1.608;2023-04-15T13:29:58;20.00;54.10
49379;DHT22;35254;47.990;-1.608;2023-04-15T13:32:24;20.00;54.40
49379;DHT22;35254;47.990;-1.608;2023-04-15T13:34:50;20.00;54.40
49379;DHT22;35254;47.990;-1.608;2023-04-15T13:37:16;20.00;54.30
49379;DHT22;35254;47.990;-1.608;2023-04-15T13:39:41;20.00;54.70
49379;DHT22;35254;47.990;-1.608;2023-04-15T13:42:07;20.00;54.40
49379;DHT22;35254;47.990;-1.608;2023-04-15T13:44:33;20.00;54.20
49379;DHT22;35254;47.990;-1.608;2023-04-15T13:46:59;20.10;54.30
49379;DHT22;35254;47.990;-1.608;2023-04-15T13:49:25;20.00;54.30
49379;DHT22;35254;47.990;-1.608;2023-04-15T13:51:51;20.10;54.10
49379;DHT22;35254;47.990;-1.608;2023-04-15T13:54:16;20.10;54.30
49379;DHT22;35254;47.990;-1.608;2023-04-15T13:56:42;20.00;53.90
49379;DHT22;35254;47.990;-1.608;2023-04-15T13:59:07;20.10;53.60
49379;DHT22;35254;47.990;-1.608;2023-04-15T14:01:34;20.10;53.60
49379;DHT22;35254;47.990;-1.608;2023-04-15T14:04:00;20.10;53.70
49379;DHT22;35254;47.990;-1.608;2023-04-15T14:06:26;20.10;54.00
49379;DHT22;35254;47.990;-1.608;2023-04-15T14:08:53;20.10;53.80
49379;DHT22;35254;47.990;-1.608;2023-04-15T14:11:18;20.10;54.10
49379;DHT22;35254;47.990;-1.608;2023-04-15T14:13:44;20.10;54.40
49379;DHT22;35254;47.990;-1.608;2023-04-15T14:16:10;20.10;54.20
49379;DHT22;35254;47.990;-1.608;2023-04-15T14:18:35;20.10;53.80
49379;DHT22;35254;47.990;-1.608;2023-04-15T14:21:02;20.10;54.10
49379;DHT22;35254;47.990;-1.608;2023-04-15T14:23:28;20.10;53.90
49379;DHT22;35254;47.990;-1.608;2023-04-15T14:25:53;20.10;53.90
49379;DHT22;35254;47.990;-1.608;2023-04-15T14:28:19;20.10;53.90
49379;DHT22;35254;47.990;-1.608;2023-04-15T14:30:45;20.10;53.80
49379;DHT22;35254;47.990;-1.608;2023-04-15T14:33:11;20.10;53.80
49379;DHT22;35254;47.990;-1.608;2023-04-15T14:35:36;20.10;53.70
49379;DHT22;35254;47.990;-1.608;2023-04-15T14:38:02;20.10;53.80
49379;DHT22;35254;47.990;-1.608;2023-04-15T14:40:28;20.10;53.60
49379;DHT22;35254;47.990;-1.608;2023-04-15T14:42:53;20.10;53.50
49379;DHT22;35254;47.990;-1.608;2023-04-15T14:45:19;20.10;53.30
49379;DHT22;35254;47.990;-1.608;2023-04-15T14:47:45;20.10;53.20
49379;DHT22;35254;47.990;-1.608;2023-04-15T14:50:11;20.10;51.50
49379;DHT22;35254;47.990;-1.608;2023-04-15T14:52:37;20.10;49.30
49379;DHT22;35254;47.990;-1.608;2023-04-15T14:55:06;20.10;50.80
49379;DHT22;35254;47.990;-1.608;2023-04-15T14:57:32;20.10;50.40
49379;DHT22;35254;47.990;-1.608;2023-04-15T14:59:57;20.10;51.80
49379;DHT22;35254;47.990;-1.608;2023-04-15T15:02:23;20.10;50.50
49379;DHT22;35254;47.990;-1.608;2023-04-15T15:04:49;20.10;51.80
49379;DHT22;35254;47.990;-1.608;2023-04-15T15:07:15;20.10;51.80
49379;DHT22;35254;47.990;-1.608;2023-04-15T15:09:40;20.10;51.00
49379;DHT22;35254;47.990;-1.608;2023-04-15T15:12:06;20.10;51.70
49379;DHT22;35254;47.990;-1.608;2023-04-15T15:14:32;20.10;51.60
49379;DHT22;35254;47.990;-1.608;2023-04-15T15:16:58;20.10;51.30
49379;DHT22;35254;47.990;-1.608;2023-04-15T15:19:24;20.10;51.20
49379;DHT22;35254;47.990;-1.608;2023-04-15T15:21:50;20.10;51.50
49379;DHT22;35254;47.990;-1.608;2023-04-15T15:24:15;20.10;51.50
49379;DHT22;35254;47.990;-1.608;2023-04-15T15:26:41;20.10;50.60
49379;DHT22;35254;47.990;-1.608;2023-04-15T15:29:06;20.10;51.40
49379;DHT22;35254;47.990;-1.608;2023-04-15T15:31:34;20.10;51.20
49379;DHT22;35254;47.990;-1.608;2023-04-15T15:34:00;20.10;51.00